createdAt,value
2022-11-22T12:32:24.263Z,98833.75
2022-11-22T12:34:56.150Z,98836.00
2022-11-22T12:37:28.669Z,98831.16
2022-11-22T12:40:00.181Z,98830.03
2022-11-22T12:42:31.193Z,98833.19
2022-11-22T12:45:02.970Z,98822.16
2022-11-22T12:47:36.686Z,98824.63
2022-11-22T12:50:10.202Z,98815.69
2022-11-22T12:52:43.515Z,98820.97
2022-11-22T12:55:17.217Z,98823.47
2022-11-22T12:57:47.570Z,98839.94
2022-11-22T13:00:17.700Z,98828.91
2022-11-22T13:02:59.326Z,98817.53
2022-11-22T13:05:30.477Z,98812.34
2022-11-22T13:08:05.074Z,98808.59
2022-11-22T13:10:38.584Z,98816.03
2022-11-22T13:13:12.280Z,98822.47
2022-11-22T13:15:40.979Z,98821.09
2022-11-22T13:18:12.581Z,98810.09
2022-11-22T13:20:46.373Z,98819.31
2022-11-22T13:23:28.351Z,98816.03
2022-11-22T13:26:08.034Z,98815.47
2022-11-22T13:28:40.055Z,98825.06
2022-11-22T13:31:15.645Z,98827.19
2022-11-22T13:33:55.851Z,98822.13
2022-11-22T13:36:39.367Z,98819.88
2022-11-22T13:39:11.821Z,98813.09
2022-11-22T13:41:43.193Z,98819.00
2022-11-22T13:44:26.325Z,98818.16
2022-11-22T13:46:57.118Z,98825.59
2022-11-22T13:49:41.229Z,98825.13
2022-11-22T13:52:44.983Z,98830.47
2022-11-22T13:55:31.294Z,98823.69
2022-11-22T13:58:29.484Z,98820.53
2022-11-22T14:00:59.779Z,98815.81
2022-11-22T14:03:36.840Z,98824.81
2022-11-22T14:06:27.386Z,98821.09
2022-11-22T14:09:32.294Z,98819.06
2022-11-22T14:12:13.516Z,98830.66
2022-11-22T14:14:49.285Z,98825.41
2022-11-22T14:17:24.964Z,98822.28
2022-11-22T14:20:02.095Z,98818.13
2022-11-22T14:22:35.980Z,98823.41
2022-11-22T14:25:21.851Z,98829.25
2022-11-22T14:27:53.087Z,98827.91
2022-11-22T14:30:22.406Z,98827.69
2022-11-22T14:32:53.918Z,98829.25
2022-11-22T14:35:30.147Z,98834.06
2022-11-22T14:38:05.381Z,98834.06
2022-11-22T14:40:36.650Z,98837.78
2022-11-22T14:43:26.372Z,98851.03
2022-11-22T14:45:58.385Z,98836.28
2022-11-22T14:48:31.469Z,98853.97
2022-11-22T14:51:06.543Z,98850.53
2022-11-22T14:53:37.968Z,98850.53
2022-11-22T14:56:09.227Z,98868.00
2022-11-22T14:58:39.512Z,98863.50
2022-11-22T15:01:44.525Z,98862.22
2022-11-22T15:09:12.789Z,98868.66
2022-11-22T15:09:12.942Z,98862.25
2022-11-22T15:10:51.527Z,98868.97
2022-11-22T15:13:37.806Z,98874.00
2022-11-22T15:59:09.678Z,98931.00
2022-11-22T16:01:41.289Z,98937.88
2022-11-22T16:04:20.392Z,98950.84
2022-11-22T16:06:48.474Z,98943.69
2022-11-22T16:09:23.797Z,98955.06
2022-11-22T16:11:54.990Z,98950.56
2022-11-22T16:14:51.116Z,98955.84
2022-11-22T16:17:28.684Z,98962.44
2022-11-22T16:20:19.637Z,98960.34
2022-11-22T16:23:04.236Z,98968.28
2022-11-22T16:25:33.867Z,98963.00
2022-11-22T16:28:05.203Z,98965.09
2022-11-22T16:30:42.830Z,98966.19
2022-11-22T16:33:12.599Z,98964.09
2022-11-22T16:35:40.929Z,98964.63
2022-11-22T16:38:09.800Z,98962.81
2022-11-22T16:40:38.943Z,98962.00
2022-11-22T16:43:15.578Z,98960.66
2022-11-22T16:45:44.492Z,98961.47
2022-11-22T16:48:34.572Z,98961.47
2022-11-22T16:51:04.968Z,98968.34
2022-11-22T16:53:41.840Z,98966.19
2022-11-22T16:56:16.287Z,98970.69
2022-11-22T16:58:44.741Z,98974.66
2022-11-22T17:01:14.860Z,98991.00
2022-11-22T17:03:44.932Z,98983.63
2022-11-22T17:06:18.268Z,98994.19
2022-11-22T17:08:46.788Z,98996.28
2022-11-22T17:11:17.690Z,98995.53
2022-11-22T17:13:45.992Z,98993.13
2022-11-22T17:16:15.097Z,99000.78
2022-11-22T17:18:44.332Z,98997.88
2022-11-22T17:21:17.594Z,98997.34
2022-11-22T17:23:46.592Z,98999.72
2022-11-22T17:26:14.837Z,98996.31
2022-11-22T17:28:42.836Z,99001.81
2022-11-22T17:31:13.750Z,98990.50
2022-11-22T17:33:41.974Z,99013.69
2022-11-22T17:36:20.174Z,99008.41
2022-11-22T17:38:48.160Z,99012.66
2022-11-22T17:41:16.430Z,99012.66
2022-11-22T17:43:44.408Z,99012.88
2022-11-22T17:46:13.023Z,99010.78
2022-11-22T17:48:40.892Z,99013.16
2022-11-22T17:51:09.973Z,99012.13
2022-11-22T17:53:39.307Z,99017.94
2022-11-22T17:56:10.876Z,99018.97
2022-11-22T17:58:39.581Z,99024.25
2022-11-22T18:01:09.565Z,99025.03
2022-11-22T18:03:37.877Z,99019.78
2022-11-22T18:06:06.920Z,99021.06
2022-11-22T18:08:35.215Z,99020.28
2022-11-22T18:11:05.340Z,99013.16
2022-11-22T18:13:35.154Z,99007.88
2022-11-22T18:16:06.012Z,99013.16
2022-11-22T18:21:24.338Z,99027.94
2022-11-22T18:23:52.417Z,99027.13
2022-11-22T18:29:41.193Z,99027.41
2022-11-22T18:31:59.150Z,99031.09
2022-11-22T18:34:27.652Z,99040.56
2022-11-22T18:37:00.846Z,99039.00
2022-11-22T18:39:31.629Z,99032.66
2022-11-22T18:42:01.402Z,99025.53
2022-11-22T18:44:29.458Z,99024.72
2022-11-22T18:46:57.831Z,99030.78
2022-11-22T18:49:25.845Z,99025.25
2022-11-22T18:51:54.069Z,99040.00
2022-11-22T18:54:22.789Z,99032.66
2022-11-22T18:56:51.075Z,99039.53
2022-11-22T18:59:20.543Z,99042.38
2022-11-22T19:01:48.922Z,99036.06
2022-11-22T19:04:17.162Z,99027.34
2022-11-22T19:06:45.758Z,99042.63
2022-11-22T19:09:13.796Z,99035.78
2022-11-22T19:11:42.064Z,99034.22
2022-11-22T19:14:09.990Z,99045.53
2022-11-22T19:16:39.600Z,99040.00
2022-11-22T19:19:08.300Z,99038.41
2022-11-22T19:21:36.559Z,99038.41
2022-11-22T19:24:05.107Z,99043.69
2022-11-22T19:26:33.289Z,99047.38
2022-11-22T19:29:02.563Z,99041.84
2022-11-22T19:31:31.526Z,99048.41
2022-11-22T19:34:01.420Z,99047.09
2022-11-22T19:36:33.622Z,99054.19
2022-11-22T19:39:03.558Z,99047.34
2022-11-22T19:41:32.092Z,99047.34
2022-11-22T19:44:00.307Z,99055.50
2022-11-22T19:46:29.236Z,99054.72
2022-11-22T19:48:58.801Z,99066.84
2022-11-22T19:51:30.756Z,99054.72
2022-11-22T19:53:59.723Z,99059.97
2022-11-22T19:56:30.469Z,99055.78
2022-11-22T19:58:59.558Z,99068.16
2022-11-22T20:01:29.554Z,99064.19
2022-11-22T20:03:59.163Z,99071.03
2022-11-22T20:06:29.574Z,99071.03
2022-11-22T20:09:02.598Z,99069.47
2022-11-22T20:11:31.108Z,99078.94
2022-11-22T20:13:59.088Z,99078.16
2022-11-22T20:16:28.412Z,99077.38
2022-11-22T20:18:58.096Z,99082.91
2022-11-22T20:21:27.467Z,99087.38
2022-11-22T20:23:57.038Z,99077.34
2022-11-22T20:26:26.188Z,99087.88
2022-11-22T20:28:58.834Z,99082.63
2022-11-22T20:31:27.896Z,99091.56
2022-11-22T20:33:56.378Z,99091.56
2022-11-22T20:36:25.667Z,99096.81
2022-11-22T20:38:55.519Z,99084.72
2022-11-22T20:41:26.620Z,99087.59
2022-11-22T20:43:55.336Z,99100.78
2022-11-22T20:46:24.805Z,99104.22
2022-11-22T20:48:53.630Z,99110.78
2022-11-22T20:51:23.781Z,99115.25
2022-11-22T20:53:52.456Z,99118.38
2022-11-22T20:56:21.040Z,99118.66
2022-11-22T20:58:52.219Z,99110.44
2022-11-22T21:01:22.313Z,99118.06
2022-11-22T21:03:51.089Z,99122.78
2022-11-22T21:06:20.630Z,99125.44
2022-11-22T21:08:49.017Z,99114.09
2022-11-22T21:11:19.569Z,99123.56
2022-11-22T21:13:48.126Z,99134.09
2022-11-22T21:16:23.711Z,99132.78
2022-11-22T21:18:53.328Z,99136.72
2022-11-22T21:21:23.736Z,99134.09
2022-11-22T21:23:53.657Z,99132.50
2022-11-22T21:26:22.224Z,99147.28
2022-11-22T21:28:51.037Z,99142.78
2022-11-22T21:31:20.932Z,99142.00
2022-11-22T21:33:49.226Z,99150.13
2022-11-22T21:36:17.688Z,99150.94
2022-11-22T21:38:45.935Z,99149.34
2022-11-22T21:41:38.657Z,99148.56
2022-11-22T21:44:04.653Z,99156.19
2022-11-22T21:46:33.893Z,99158.28
2022-11-22T21:49:02.099Z,99156.72
2022-11-22T21:51:30.279Z,99161.44
2022-11-22T21:53:58.714Z,99153.53
2022-11-22T21:56:26.970Z,99159.84
2022-11-22T21:58:55.360Z,99160.88
2022-11-22T22:01:23.773Z,99167.25
2022-11-22T22:03:53.647Z,99166.72
2022-11-22T22:06:21.987Z,99165.72
2022-11-22T22:08:50.277Z,99168.34
2022-11-22T22:11:18.209Z,99164.66
2022-11-22T22:13:46.435Z,99164.66
2022-11-22T22:16:18.932Z,99163.06
2022-11-22T22:18:47.533Z,99168.13
2022-11-22T22:21:18.060Z,99164.97
2022-11-22T22:23:47.155Z,99171.56
2022-11-22T22:26:16.998Z,99171.56
2022-11-22T22:28:45.974Z,99176.31
2022-11-22T22:31:17.380Z,99164.50
2022-11-22T22:33:46.515Z,99166.88
2022-11-22T22:36:14.979Z,99166.34
2022-11-22T22:38:44.485Z,99172.44
2022-11-22T22:41:13.653Z,99164.78
2022-11-22T22:43:43.474Z,99169.53
2022-11-22T22:46:13.220Z,99170.06
2022-11-22T22:48:41.846Z,99180.06
2022-11-22T22:51:14.809Z,99176.38
2022-11-22T22:53:45.224Z,99179.56
2022-11-22T22:56:14.636Z,99173.78
2022-11-22T22:58:43.004Z,99184.59
2022-11-22T23:01:14.664Z,99187.50
2022-11-22T23:03:42.985Z,99182.50
2022-11-22T23:06:12.579Z,99185.38
2022-11-22T23:08:40.896Z,99179.03
2022-11-22T23:11:11.704Z,99176.91
2022-11-22T23:13:41.710Z,99180.03
2022-11-22T23:16:11.578Z,99181.06
2022-11-22T23:18:41.009Z,99190.03
2022-11-22T23:21:11.681Z,99185.56
2022-11-22T23:23:40.256Z,99178.22
2022-11-22T23:26:10.692Z,99180.59
2022-11-22T23:28:39.085Z,99187.44
2022-11-22T23:31:08.097Z,99182.47
2022-11-22T23:33:36.750Z,99186.69
2022-11-22T23:36:05.468Z,99188.56
2022-11-22T23:38:34.099Z,99183.06
2022-11-22T23:41:02.216Z,99189.44
2022-11-22T23:43:31.831Z,99185.22
2022-11-22T23:45:59.922Z,99184.44
2022-11-22T23:48:28.422Z,99190.78
2022-11-22T23:50:56.661Z,99181.84
2022-11-22T23:53:24.912Z,99189.22
2022-11-22T23:55:52.808Z,99190.81
2022-11-22T23:58:21.147Z,99186.06
